Time;durP1;ratioP1;P1;durP2;ratioP2;P2;SDS_P1;SDS_P2;PMS_P1;PMS_P2;Temp;Humidity;BMP_temperature;BMP_pressure;BME280_temperature;BME280_humidity;BME280_pressure;Samples;Min_cycle;Max_cycle;Signal;HPM_P1;HPM_P2
2022/04/02 00:01:14;;;;;;;29.38;11.13;;;14.10;69.20;;;;;;5084623;28;20043;-60
2022/04/02 00:03:41;;;;;;;29.77;10.68;;;14.10;69.30;;;;;;5073406;28;20096;-60
2022/04/02 00:06:07;;;;;;;24.20;10.25;;;14.00;69.30;;;;;;5084186;28;20039;-60
2022/04/02 00:08:34;;;;;;;26.38;10.20;;;14.00;69.30;;;;;;5077879;28;20028;-60
2022/04/02 00:11:00;;;;;;;26.25;9.60;;;14.00;69.10;;;;;;5095025;28;20031;-60
2022/04/02 00:13:26;;;;;;;26.15;10.27;;;14.00;68.90;;;;;;5074017;28;20430;-59
2022/04/02 00:15:52;;;;;;;27.55;10.32;;;13.90;68.80;;;;;;5072973;28;20028;-60
2022/04/02 00:18:17;;;;;;;26.27;10.13;;;13.90;68.80;;;;;;5083979;28;20028;-60
2022/04/02 00:20:43;;;;;;;26.42;10.90;;;13.90;68.60;;;;;;5087466;28;20016;-59
2022/04/02 00:25:53;;;;;;;23.58;9.80;;;13.90;68.40;;;;;;5079270;28;20502;-60
2022/04/02 00:28:18;;;;;;;24.80;9.43;;;13.90;68.20;;;;;;5087641;28;20095;-60
2022/04/02 00:30:45;;;;;;;20.52;10.23;;;13.80;67.90;;;;;;5074552;28;20107;-60
2022/04/02 00:33:11;;;;;;;26.00;8.35;;;13.80;67.70;;;;;;5070164;28;20051;-60
2022/04/02 00:35:37;;;;;;;28.75;9.93;;;13.70;67.70;;;;;;5084736;28;20035;-60
2022/04/02 00:38:03;;;;;;;24.10;9.70;;;13.70;67.60;;;;;;5086826;28;20028;-60
2022/04/02 00:40:29;;;;;;;32.92;10.63;;;13.70;67.50;;;;;;5078114;28;20493;-60
2022/04/02 00:42:54;;;;;;;25.92;9.60;;;13.60;67.60;;;;;;5075747;28;20590;-60
2022/04/02 00:45:20;;;;;;;28.67;9.25;;;13.60;67.70;;;;;;5071959;28;20028;-60
2022/04/02 00:47:46;;;;;;;24.20;10.43;;;13.60;67.80;;;;;;5067614;28;20153;-60
2022/04/02 00:50:11;;;;;;;26.08;10.70;;;13.60;67.80;;;;;;5085374;28;20031;-60
2022/04/02 00:52:39;;;;;;;23.83;9.10;;;13.60;68.00;;;;;;5085028;28;20024;-59
2022/04/02 00:55:05;;;;;;;28.67;10.57;;;13.60;68.20;;;;;;5077894;28;20028;-59
2022/04/02 00:57:31;;;;;;;27.63;10.85;;;13.60;68.10;;;;;;5088339;28;20100;-60
2022/04/02 00:59:56;;;;;;;24.48;10.38;;;13.60;67.90;;;;;;5087475;28;20052;-59
2022/04/02 01:02:22;;;;;;;26.92;10.65;;;13.60;67.80;;;;;;5082584;28;20024;-59
2022/04/02 01:04:48;;;;;;;26.00;10.05;;;13.60;67.60;;;;;;5085336;28;20028;-60
2022/04/02 01:07:16;;;;;;;25.60;9.32;;;13.60;67.60;;;;;;5085637;28;20028;-60
2022/04/02 01:09:42;;;;;;;25.77;9.90;;;13.60;67.30;;;;;;5083653;28;20471;-60
2022/04/02 01:12:08;;;;;;;26.55;10.25;;;13.50;67.20;;;;;;5086030;28;20024;-60
2022/04/02 01:14:34;;;;;;;25.88;10.10;;;13.50;67.10;;;;;;5083660;28;20444;-60
2022/04/02 01:17:01;;;;;;;25.50;8.82;;;13.50;67.30;;;;;;5066796;28;20039;-60
2022/04/02 01:19:28;;;;;;;27.35;10.05;;;13.50;67.30;;;;;;5084192;28;20032;-60
2022/04/02 01:21:54;;;;;;;26.98;9.40;;;13.50;67.10;;;;;;5073630;28;20468;-60
2022/04/02 01:24:20;;;;;;;25.33;10.23;;;13.40;67.00;;;;;;5067572;28;20024;-60
2022/04/02 01:26:46;;;;;;;23.58;9.93;;;13.40;67.10;;;;;;5067580;28;20053;-60
2022/04/02 01:29:12;;;;;;;31.05;9.95;;;13.40;67.10;;;;;;5085618;28;20025;-59
2022/04/02 01:31:42;;;;;;;35.28;10.18;;;13.30;67.00;;;;;;5089208;28;20078;-60
2022/04/02 01:34:07;;;;;;;27.27;9.70;;;13.30;66.90;;;;;;5081594;28;20056;-60
2022/04/02 01:36:33;;;;;;;20.75;9.20;;;13.30;66.90;;;;;;5090624;28;20067;-60
2022/04/02 01:38:58;;;;;;;28.90;10.00;;;13.20;66.90;;;;;;5091517;28;20468;-60
2022/04/02 01:41:24;;;;;;;30.83;10.10;;;13.20;67.00;;;;;;5080076;28;20043;-60
2022/04/02 01:43:50;;;;;;;22.88;9.48;;;13.20;67.00;;;;;;5074549;28;20354;-60
2022/04/02 01:46:16;;;;;;;27.48;10.07;;;13.20;67.10;;;;;;5072581;28;20107;-60
2022/04/02 01:48:42;;;;;;;28.02;10.23;;;13.20;67.10;;;;;;5083642;28;20079;-60
2022/04/02 01:51:07;;;;;;;31.00;9.77;;;13.20;67.10;;;;;;5092182;28;20493;-60
2022/04/02 01:53:34;;;;;;;30.27;10.43;;;13.20;67.20;;;;;;5085974;28;20024;-60
2022/04/02 01:56:00;;;;;;;25.35;9.50;;;13.20;67.40;;;;;;5085814;28;20036;-60
2022/04/02 01:58:26;;;;;;;24.50;10.10;;;13.20;67.20;;;;;;5092968;28;20047;-60
2022/04/02 02:00:53;;;;;;;28.30;10.25;;;13.10;67.00;;;;;;5086824;28;20013;-60
2022/04/02 02:03:18;;;;;;;21.17;10.05;;;13.10;67.30;;;;;;5086467;28;20093;-60
2022/04/02 02:05:44;;;;;;;22.88;9.82;;;13.10;67.40;;;;;;5083571;28;20024;-60
2022/04/02 02:08:10;;;;;;;27.65;11.32;;;13.10;67.30;;;;;;5085888;28;20043;-59
2022/04/02 02:10:36;;;;;;;26.50;9.80;;;13.00;67.40;;;;;;5093108;28;20031;-60
2022/04/02 02:13:03;;;;;;;22.55;9.32;;;13.00;67.60;;;;;;5083137;28;20031;-60
2022/04/02 02:15:28;;;;;;;26.27;9.15;;;13.00;67.50;;;;;;5080847;28;20058;-60
2022/04/02 02:17:54;;;;;;;29.05;9.63;;;13.00;67.60;;;;;;5080108;28;20115;-60
2022/04/02 02:20:20;;;;;;;23.67;10.55;;;12.90;67.60;;;;;;5088035;28;20060;-59
2022/04/02 02:22:47;;;;;;;29.10;10.23;;;12.90;68.00;;;;;;5076311;28;20104;-59
2022/04/02 02:25:15;;;;;;;23.10;10.88;;;12.90;68.30;;;;;;5066497;28;20081;-60
2022/04/02 02:27:42;;;;;;;29.38;10.70;;;12.80;68.40;;;;;;5064777;28;20032;-60
2022/04/02 02:30:09;;;;;;;25.58;11.65;;;12.80;68.70;;;;;;5092551;28;20043;-60
2022/04/02 02:32:36;;;;;;;28.30;10.35;;;12.70;68.90;;;;;;5091840;28;20039;-59
2022/04/02 02:38:12;;;;;;;30.10;11.23;;;12.60;69.20;;;;;;5089679;28;20035;-60
2022/04/02 02:40:39;;;;;;;27.10;10.73;;;12.60;69.60;;;;;;5087747;28;20115;-59
2022/04/02 02:43:07;;;;;;;27.38;10.57;;;12.50;69.80;;;;;;5076068;28;20025;-60
2022/04/02 02:45:33;;;;;;;23.55;10.85;;;12.50;69.80;;;;;;5072292;28;20075;-60
2022/04/02 02:48:00;;;;;;;26.50;10.60;;;12.40;70.00;;;;;;5083479;28;20032;-60
2022/04/02 02:50:26;;;;;;;28.92;10.55;;;12.40;70.30;;;;;;5092286;28;20024;-59
2022/04/02 02:52:52;;;;;;;27.25;10.75;;;12.30;70.40;;;;;;5078635;28;20029;-60
2022/04/02 02:55:21;;;;;;;23.23;10.38;;;12.30;70.60;;;;;;5081771;28;20048;-60
2022/04/02 02:57:47;;;;;;;22.42;10.15;;;12.30;70.60;;;;;;5075197;28;20036;-60
2022/04/02 03:00:15;;;;;;;19.83;10.23;;;12.30;70.80;;;;;;5086090;28;20091;-60
2022/04/02 03:02:41;;;;;;;26.23;10.88;;;12.20;71.10;;;;;;5071420;28;20031;-60
2022/04/02 03:05:10;;;;;;;24.92;10.23;;;12.20;71.30;;;;;;5091204;28;20044;-60
2022/04/02 03:07:48;;;;;;;26.17;10.50;;;12.10;71.10;;;;;;5096294;28;20045;-60
2022/04/02 03:10:25;;;;;;;29.60;10.80;;;12.10;71.00;;;;;;5089990;28;20435;-59
2022/04/02 03:12:52;;;;;;;24.77;10.35;;;12.10;71.10;;;;;;5065573;28;20112;-60
2022/04/02 03:15:20;;;;;;;23.08;10.18;;;12.00;70.80;;;;;;5079028;28;20036;-59
2022/04/02 03:17:47;;;;;;;27.13;11.05;;;12.10;70.80;;;;;;5082992;28;20031;-60
2022/04/02 03:20:15;;;;;;;30.55;12.35;;;12.00;70.50;;;;;;5069976;28;20025;-60
2022/04/02 03:22:45;;;;;;;22.83;11.63;;;12.10;70.40;;;;;;5093951;28;20357;-60
2022/04/02 03:25:16;;;;;;;31.83;14.02;;;12.00;70.10;;;;;;5075894;28;20021;-60
2022/04/02 03:27:43;;;;;;;27.88;12.30;;;12.10;70.40;;;;;;5095903;28;20035;-60
2022/04/02 03:30:10;;;;;;;28.08;12.55;;;12.10;70.40;;;;;;5090952;28;20040;-60
2022/04/02 03:32:36;;;;;;;26.98;11.43;;;12.10;70.20;;;;;;5095791;28;20056;-60
2022/04/02 03:35:03;;;;;;;24.52;11.32;;;12.10;70.10;;;;;;5080035;28;20025;-59
2022/04/02 03:37:30;;;;;;;27.38;12.18;;;12.10;69.90;;;;;;5067962;28;20032;-59
2022/04/02 03:39:56;;;;;;;26.30;12.68;;;12.20;70.00;;;;;;5088376;28;20115;-60
2022/04/02 03:42:22;;;;;;;31.90;11.68;;;12.20;70.30;;;;;;5071530;28;20413;-60
2022/04/02 03:44:49;;;;;;;24.65;11.35;;;12.20;70.20;;;;;;5069470;28;20025;-60
2022/04/02 03:47:15;;;;;;;31.38;12.70;;;12.20;70.20;;;;;;5073744;28;20025;-60
2022/04/02 03:49:46;;;;;;;28.35;12.23;;;12.20;70.30;;;;;;5082244;28;20024;-60
2022/04/02 03:52:13;;;;;;;24.98;11.27;;;12.20;70.40;;;;;;5078364;28;20052;-60
2022/04/02 03:54:40;;;;;;;27.20;12.32;;;12.30;70.40;;;;;;5089352;28;20439;-61
2022/04/02 03:57:07;;;;;;;34.63;12.38;;;12.30;70.40;;;;;;5080720;28;20028;-59
2022/04/02 03:59:33;;;;;;;32.78;12.32;;;12.30;70.20;;;;;;5095376;28;20024;-58
2022/04/02 04:01:59;;;;;;;31.52;13.70;;;12.30;69.90;;;;;;5093769;28;20028;-58
2022/04/02 04:04:28;;;;;;;25.58;12.10;;;12.40;69.80;;;;;;5063952;28;20029;-63
2022/04/02 04:06:54;;;;;;;28.00;10.65;;;12.40;69.60;;;;;;5085950;28;20035;-59
2022/04/02 04:09:20;;;;;;;21.75;10.18;;;12.50;69.40;;;;;;5086346;28;20020;-59
2022/04/02 04:11:47;;;;;;;29.05;10.90;;;12.50;69.00;;;;;;5095069;28;20429;-60
2022/04/02 04:14:14;;;;;;;28.02;10.55;;;12.50;68.70;;;;;;5073415;28;20059;-59
2022/04/02 04:16:40;;;;;;;31.95;11.93;;;12.50;68.70;;;;;;5073335;28;20392;-58
2022/04/02 04:19:06;;;;;;;36.63;11.30;;;12.50;68.40;;;;;;5068186;28;20081;-60
2022/04/02 04:21:31;;;;;;;24.13;10.65;;;12.50;68.50;;;;;;5079644;28;20439;-59
2022/04/02 04:23:57;;;;;;;27.45;10.63;;;12.50;68.40;;;;;;5088373;28;20027;-59
2022/04/02 04:26:23;;;;;;;21.77;9.55;;;12.60;68.40;;;;;;5069173;28;20116;-59
2022/04/02 04:28:48;;;;;;;23.85;8.85;;;12.60;68.40;;;;;;5095131;28;20361;-59
2022/04/02 04:31:18;;;;;;;24.25;9.23;;;12.70;68.40;;;;;;5091575;28;20119;-59
2022/04/02 04:33:47;;;;;;;26.77;8.73;;;12.80;68.10;;;;;;5085239;28;20035;-58
2022/04/02 04:36:15;;;;;;;16.77;10.13;;;12.80;67.80;;;;;;5073117;28;20041;-59
2022/04/02 04:38:41;;;;;;;27.85;9.45;;;12.90;67.70;;;;;;5073875;28;20377;-59
2022/04/02 04:41:07;;;;;;;22.55;9.00;;;13.00;67.70;;;;;;5080895;28;20472;-59
2022/04/02 04:43:34;;;;;;;20.27;9.55;;;13.00;67.40;;;;;;5074742;28;20027;-59
2022/04/02 04:46:02;;;;;;;26.42;9.48;;;13.10;67.20;;;;;;5093870;28;20375;-59
2022/04/02 04:48:28;;;;;;;30.80;10.45;;;13.20;67.00;;;;;;5073765;28;20484;-59
2022/04/02 04:50:54;;;;;;;22.70;9.75;;;13.20;66.80;;;;;;5074359;28;20036;-58
2022/04/02 04:53:19;;;;;;;23.92;9.32;;;13.20;66.60;;;;;;5086223;28;20538;-59
2022/04/02 04:55:46;;;;;;;20.90;8.60;;;13.20;66.50;;;;;;5078273;28;20037;-58
2022/04/02 04:58:11;;;;;;;23.85;9.18;;;13.20;66.60;;;;;;5094604;28;20374;-59
2022/04/02 05:00:37;;;;;;;21.70;8.15;;;13.30;66.60;;;;;;5077978;28;20028;-59
2022/04/02 05:03:04;;;;;;;26.63;9.10;;;13.30;66.50;;;;;;5084754;28;20032;-59
2022/04/02 05:05:32;;;;;;;20.10;8.40;;;13.30;66.50;;;;;;5081196;28;20036;-59
2022/04/02 05:07:59;;;;;;;25.58;8.48;;;13.30;66.80;;;;;;5078516;28;20035;-59
2022/04/02 05:10:25;;;;;;;23.38;8.82;;;13.40;66.80;;;;;;5091423;28;20519;-59
2022/04/02 05:12:51;;;;;;;19.50;8.68;;;13.60;66.90;;;;;;5079983;28;20033;-59
2022/04/02 05:15:17;;;;;;;24.50;9.13;;;13.80;66.50;;;;;;5082391;28;20050;-59
2022/04/02 05:17:43;;;;;;;21.95;8.40;;;14.10;66.30;;;;;;5066756;28;20141;-59
2022/04/02 05:20:14;;;;;;;26.80;9.85;;;14.40;65.80;;;;;;5075473;28;20025;-59
2022/04/02 05:22:43;;;;;;;24.23;9.90;;;14.60;65.20;;;;;;5082969;28;20154;-59
2022/04/02 05:25:10;;;;;;;25.60;8.65;;;15.00;64.80;;;;;;5075070;28;20114;-59
2022/04/02 05:27:37;;;;;;;26.10;9.48;;;15.20;63.90;;;;;;5085051;28;20036;-59
2022/04/02 05:30:04;;;;;;;25.92;9.73;;;15.60;63.50;;;;;;5082075;28;20093;-59
2022/04/02 05:32:30;;;;;;;25.67;9.55;;;15.90;62.90;;;;;;5086223;28;20024;-58
2022/04/02 05:34:57;;;;;;;24.45;9.57;;;16.10;62.30;;;;;;5089314;28;20114;-59
2022/04/02 05:37:23;;;;;;;20.92;9.18;;;16.40;61.60;;;;;;5086705;28;20025;-59
2022/04/02 05:39:49;;;;;;;27.02;9.80;;;16.60;61.10;;;;;;5091380;28;20051;-58
2022/04/02 05:42:14;;;;;;;24.35;9.40;;;16.90;60.90;;;;;;5079552;28;20028;-59
2022/04/02 05:44:40;;;;;;;23.58;9.30;;;17.10;60.00;;;;;;5078913;28;20024;-59
2022/04/02 05:47:06;;;;;;;24.65;9.15;;;17.40;59.10;;;;;;5071001;28;20420;-59
2022/04/02 05:49:32;;;;;;;26.05;8.80;;;17.60;58.60;;;;;;5085401;28;20027;-59
2022/04/02 05:52:00;;;;;;;17.65;8.98;;;17.70;58.50;;;;;;5090407;28;20086;-59
2022/04/02 05:54:26;;;;;;;25.58;9.15;;;17.80;58.20;;;;;;5076324;28;20028;-59
2022/04/02 05:56:54;;;;;;;24.50;9.60;;;17.70;57.80;;;;;;5093272;28;20372;-59
2022/04/02 05:59:21;;;;;;;24.80;9.65;;;17.60;57.70;;;;;;5088357;28;20081;-59
2022/04/02 06:01:47;;;;;;;26.13;10.00;;;17.60;57.70;;;;;;5076173;28;20020;-59
2022/04/02 06:04:13;;;;;;;26.55;9.43;;;17.40;57.60;;;;;;5067672;28;20029;-59
2022/04/02 06:06:39;;;;;;;27.75;9.75;;;17.20;57.80;;;;;;5061227;28;20025;-59
2022/04/02 06:09:05;;;;;;;21.73;9.60;;;17.10;58.30;;;;;;5068261;28;20031;-59
2022/04/02 06:11:31;;;;;;;25.30;9.90;;;16.90;58.90;;;;;;5092641;28;20051;-59
2022/04/02 06:13:58;;;;;;;26.25;9.77;;;16.80;58.60;;;;;;5092885;28;20024;-59
2022/04/02 06:16:23;;;;;;;29.80;10.75;;;16.50;58.70;;;;;;5089001;28;20024;-59
2022/04/02 06:18:53;;;;;;;26.20;10.18;;;16.30;58.90;;;;;;5081495;28;20081;-59
2022/04/02 06:21:19;;;;;;;21.60;9.75;;;16.00;59.40;;;;;;5070627;28;20035;-60
2022/04/02 06:23:45;;;;;;;26.42;9.75;;;15.70;60.00;;;;;;5081332;28;20023;-60
2022/04/02 06:26:11;;;;;;;20.73;8.52;;;15.50;60.30;;;;;;5091112;28;20421;-59
2022/04/02 06:28:37;;;;;;;22.05;10.13;;;15.30;60.60;;;;;;5084161;28;20103;-60
2022/04/02 06:31:04;;;;;;;26.00;10.55;;;15.10;60.90;;;;;;5105837;28;20024;-60
2022/04/02 06:33:32;;;;;;;24.65;9.77;;;15.00;61.50;;;;;;5087222;28;20020;-60
2022/04/02 06:35:59;;;;;;;25.15;9.73;;;14.90;61.90;;;;;;5074383;28;20029;-60
2022/04/02 06:38:24;;;;;;;22.08;10.13;;;14.80;62.10;;;;;;5066233;28;20035;-60
2022/04/02 06:40:50;;;;;;;27.17;10.30;;;14.70;62.40;;;;;;5072294;28;20107;-60
2022/04/02 06:43:16;;;;;;;23.77;10.80;;;14.60;62.70;;;;;;5076681;28;20025;-60
2022/04/02 06:45:41;;;;;;;27.60;9.85;;;14.60;62.90;;;;;;5065284;28;20593;-60
2022/04/02 06:48:08;;;;;;;23.42;11.80;;;14.60;63.40;;;;;;5065675;28;20418;-60
2022/04/02 06:50:33;;;;;;;22.70;10.68;;;14.60;63.60;;;;;;5081209;28;20498;-60
2022/04/02 06:52:59;;;;;;;22.08;9.80;;;14.60;63.90;;;;;;5060608;28;20017;-60
2022/04/02 06:55:25;;;;;;;24.02;10.10;;;14.60;63.90;;;;;;5062537;28;20024;-60
2022/04/02 06:57:55;;;;;;;22.38;10.10;;;14.70;63.90;;;;;;5069495;28;20133;-60
2022/04/02 07:00:21;;;;;;;27.13;11.03;;;14.70;63.70;;;;;;5063558;28;20025;-60
2022/04/02 07:02:47;;;;;;;25.83;10.23;;;14.70;63.80;;;;;;5060846;28;20595;-60
2022/04/02 07:05:14;;;;;;;23.40;10.23;;;14.70;63.90;;;;;;5065593;28;20103;-60
2022/04/02 07:07:40;;;;;;;27.90;11.23;;;14.70;64.10;;;;;;5067104;28;20032;-60
2022/04/02 07:10:07;;;;;;;22.75;10.90;;;14.70;64.10;;;;;;5063544;28;20534;-60
2022/04/02 07:12:34;;;;;;;25.00;10.15;;;14.70;64.10;;;;;;5057585;28;20028;-60
2022/04/02 07:15:00;;;;;;;24.40;9.40;;;14.70;64.00;;;;;;5068624;28;20566;-60
2022/04/02 07:17:27;;;;;;;19.08;9.75;;;14.60;64.20;;;;;;5066720;28;20074;-60
2022/04/02 07:19:57;;;;;;;28.25;9.75;;;14.50;64.50;;;;;;5072764;28;20016;-60
2022/04/02 07:22:23;;;;;;;27.52;10.55;;;14.50;64.70;;;;;;5065583;28;20036;-60
2022/04/02 07:24:54;;;;;;;24.58;10.38;;;14.50;65.00;;;;;;5069592;28;20022;-60
2022/04/02 07:27:26;;;;;;;23.02;10.05;;;14.50;65.10;;;;;;5073353;28;20487;-59
2022/04/02 07:29:55;;;;;;;23.23;10.30;;;14.50;65.30;;;;;;5073006;28;20042;-60
2022/04/02 07:32:21;;;;;;;26.35;10.57;;;14.40;65.50;;;;;;5065094;28;20477;-60
2022/04/02 07:34:47;;;;;;;28.50;11.18;;;14.40;65.70;;;;;;5071479;28;20048;-60
2022/04/02 07:37:43;;;;;;;26.60;11.82;;;14.40;65.90;;;;;;5075124;28;20582;-60
2022/04/02 07:40:28;;;;;;;29.63;11.77;;;14.40;66.10;;;;;;5076533;28;20033;-59
2022/04/02 07:43:04;;;;;;;24.35;9.60;;;14.40;66.40;;;;;;5066674;28;20480;-60
2022/04/02 07:45:41;;;;;;;28.13;11.63;;;14.40;66.80;;;;;;5061860;28;20033;-60
2022/04/02 07:48:08;;;;;;;25.95;11.52;;;14.40;67.20;;;;;;5064528;28;20028;-59
2022/04/02 07:50:34;;;;;;;21.30;11.70;;;14.40;67.70;;;;;;5066078;28;20112;-60
2022/04/02 07:53:03;;;;;;;24.65;11.35;;;14.40;67.90;;;;;;5068509;28;20029;-60
2022/04/02 07:55:31;;;;;;;28.50;12.07;;;14.40;68.90;;;;;;5061236;28;20556;-60
2022/04/02 07:58:02;;;;;;;26.20;11.25;;;14.40;68.60;;;;;;5070535;28;20358;-60
2022/04/02 08:00:29;;;;;;;28.73;12.77;;;14.40;68.90;;;;;;5068462;28;20550;-60
2022/04/02 08:02:56;;;;;;;24.20;12.02;;;14.40;69.40;;;;;;5065492;28;20504;-60
2022/04/02 08:05:23;;;;;;;29.85;16.55;;;14.40;70.10;;;;;;5063417;28;20020;-60
2022/04/02 08:07:52;;;;;;;31.58;13.13;;;14.40;70.90;;;;;;5068646;28;20028;-60
2022/04/02 08:10:19;;;;;;;24.42;13.85;;;14.30;71.70;;;;;;5075006;28;20119;-60
2022/04/02 08:12:46;;;;;;;21.25;10.35;;;14.30;72.90;;;;;;5072434;28;20028;-60
2022/04/02 08:15:17;;;;;;;28.85;12.07;;;14.20;73.20;;;;;;5069805;28;20033;-60
2022/04/02 08:17:45;;;;;;;32.42;13.45;;;14.20;73.90;;;;;;5072551;28;20104;-59
2022/04/02 08:20:11;;;;;;;26.15;11.77;;;14.10;74.40;;;;;;5082033;28;20016;-59
2022/04/02 08:22:38;;;;;;;28.70;12.48;;;14.00;74.90;;;;;;5075324;28;20082;-60
2022/04/02 08:25:04;;;;;;;31.15;13.70;;;14.00;75.80;;;;;;5059206;28;20029;-60
2022/04/02 08:27:32;;;;;;;26.20;13.60;;;14.00;76.30;;;;;;5067933;28;20052;-60
2022/04/02 08:30:07;;;;;;;23.10;13.13;;;14.00;76.70;;;;;;5074576;28;20021;-60
2022/04/02 08:33:10;;;;;;;27.23;13.35;;;13.90;77.20;;;;;;5060858;28;20025;-60
2022/04/02 08:35:41;;;;;;;22.48;11.77;;;13.90;77.30;;;;;;5081767;28;20112;-59
2022/04/02 08:38:42;;;;;;;22.55;12.90;;;13.90;77.70;;;;;;5064424;28;20048;-59
2022/04/02 08:41:19;;;;;;;25.38;13.50;;;13.80;77.70;;;;;;5061134;28;20123;-60
2022/04/02 08:44:16;;;;;;;26.33;12.75;;;13.80;78.00;;;;;;5060150;28;20392;-60
2022/04/02 08:47:10;;;;;;;26.98;13.02;;;13.70;78.00;;;;;;5066059;28;20024;-60
2022/04/02 08:49:35;;;;;;;22.98;12.50;;;13.70;78.40;;;;;;5070170;28;20028;-60
2022/04/02 08:52:04;;;;;;;21.33;12.70;;;13.60;79.10;;;;;;5071276;28;20030;-59
2022/04/02 08:54:58;;;;;;;21.92;12.23;;;13.60;79.80;;;;;;5060930;28;20099;-60
2022/04/02 08:57:34;;;;;;;22.63;12.65;;;13.60;80.20;;;;;;5067910;28;20040;-60
2022/04/02 09:00:03;;;;;;;27.90;13.30;;;13.60;80.60;;;;;;5070377;28;20021;-60
2022/04/02 09:02:47;;;;;;;23.13;12.55;;;13.60;81.10;;;;;;5064261;28;20036;-60
2022/04/02 09:05:23;;;;;;;27.63;12.48;;;13.60;81.40;;;;;;5072054;28;20465;-59
2022/04/02 09:08:26;;;;;;;23.73;12.50;;;13.70;81.90;;;;;;5065275;28;20021;-59
2022/04/02 09:10:58;;;;;;;18.83;11.18;;;13.70;82.00;;;;;;5062407;28;20036;-59
2022/04/02 09:13:38;;;;;;;17.52;10.82;;;13.70;82.60;;;;;;5071508;28;20093;-60
2022/04/02 09:16:06;;;;;;;19.90;10.07;;;13.70;83.00;;;;;;5068163;28;20030;-59
2022/04/02 09:18:38;;;;;;;13.18;8.43;;;13.80;83.40;;;;;;5074668;28;20520;-60
2022/04/02 09:21:20;;;;;;;;;;;13.80;83.90;;;;;;5063929;28;20143;-58
2022/04/02 09:24:05;;;;;;;9.98;5.90;;;13.80;82.90;;;;;;5065551;28;19908;-60
2022/04/02 09:26:51;;;;;;;9.25;6.05;;;13.80;83.60;;;;;;5061416;28;20436;-60
2022/04/02 09:29:28;;;;;;;6.03;4.57;;;13.80;84.30;;;;;;5058746;28;20037;-59
2022/04/02 09:32:18;;;;;;;10.90;7.15;;;13.80;85.20;;;;;;5061677;28;20041;-60
2022/04/02 09:35:26;;;;;;;9.73;6.90;;;13.90;86.00;;;;;;5072385;28;20040;-60
2022/04/02 09:38:26;;;;;;;10.52;7.85;;;13.90;85.80;;;;;;5069883;28;20284;-60
2022/04/02 09:40:57;;;;;;;7.78;5.00;;;13.90;86.00;;;;;;5067735;28;20118;-60
2022/04/02 09:43:37;;;;;;;6.20;5.00;;;13.90;87.20;;;;;;5058819;28;20025;-60
2022/04/02 09:46:27;;;;;;;7.03;4.85;;;13.90;87.50;;;;;;5060116;28;20043;-60
2022/04/02 09:48:52;;;;;;;11.07;5.80;;;13.90;87.40;;;;;;5082686;28;20036;-60
2022/04/02 09:51:21;;;;;;;6.80;4.55;;;14.00;88.30;;;;;;5071680;28;20033;-60
2022/04/02 09:54:18;;;;;;;7.57;4.93;;;14.00;88.60;;;;;;5066719;28;20025;-60
2022/04/02 09:56:53;;;;;;;7.38;4.80;;;14.10;88.00;;;;;;5069819;28;20046;-59
2022/04/02 09:59:28;;;;;;;4.90;3.65;;;14.10;88.70;;;;;;5080125;28;20025;-59
2022/04/02 10:02:05;;;;;;;7.32;4.10;;;14.20;88.40;;;;;;5068117;28;20024;-59
2022/04/02 10:04:55;;;;;;;5.57;3.85;;;14.30;88.40;;;;;;5057964;28;20039;-60
2022/04/02 10:07:36;;;;;;;7.45;4.40;;;14.30;88.00;;;;;;5067081;28;20021;-59
2022/04/02 10:10:03;;;;;;;5.63;3.85;;;14.30;87.70;;;;;;5052959;28;20107;-59
2022/04/02 10:12:29;;;;;;;6.45;3.30;;;14.40;87.80;;;;;;5069260;28;20024;-60
2022/04/02 10:14:59;;;;;;;4.63;3.38;;;14.40;87.80;;;;;;5059020;28;20048;-60
2022/04/02 10:17:29;;;;;;;4.78;3.20;;;14.40;87.80;;;;;;5061794;28;20492;-60
2022/04/02 10:19:59;;;;;;;4.82;3.42;;;14.40;87.90;;;;;;5069058;28;20020;-60
2022/04/02 10:22:45;;;;;;;3.58;2.90;;;14.30;88.10;;;;;;5069976;28;20104;-60
2022/04/02 10:25:13;;;;;;;4.32;3.13;;;14.30;87.70;;;;;;5066061;28;20031;-60
2022/04/02 10:27:43;;;;;;;4.80;3.08;;;14.30;88.40;;;;;;5090936;28;20020;-60
2022/04/02 10:30:14;;;;;;;4.68;3.05;;;14.30;88.60;;;;;;5090896;28;20024;-60
2022/04/02 10:32:57;;;;;;;3.90;3.35;;;14.30;88.60;;;;;;5091142;28;20036;-60
2022/04/02 10:35:27;;;;;;;5.05;2.83;;;14.30;88.30;;;;;;5084102;28;20033;-60
2022/04/02 10:38:06;;;;;;;4.15;3.17;;;14.30;88.80;;;;;;5070316;28;20549;-59
2022/04/02 10:40:45;;;;;;;4.78;3.20;;;14.30;89.00;;;;;;5078841;28;20086;-60
2022/04/02 10:43:22;;;;;;;4.50;3.25;;;14.30;88.70;;;;;;5092726;28;20062;-60
2022/04/02 10:45:48;;;;;;;4.78;3.13;;;14.30;88.90;;;;;;5090858;28;20030;-59
2022/04/02 10:48:14;;;;;;;4.47;3.38;;;14.30;89.60;;;;;;5092251;28;20032;-61
2022/04/02 10:50:43;;;;;;;3.55;3.00;;;14.30;89.60;;;;;;5092664;28;20117;-61
2022/04/02 10:53:14;;;;;;;5.43;2.97;;;14.40;89.50;;;;;;5071986;28;20025;-61
2022/04/02 10:55:47;;;;;;;3.83;2.92;;;14.40;89.10;;;;;;5076208;28;20020;-61
2022/04/02 10:58:13;;;;;;;5.28;3.40;;;14.40;89.10;;;;;;5065289;28;20029;-60
2022/04/02 11:00:45;;;;;;;4.28;3.25;;;14.50;89.10;;;;;;5084327;28;20468;-60
2022/04/02 11:03:18;;;;;;;;;;;14.50;89.10;;;;;;5078769;28;20031;-61
2022/04/02 11:05:43;;;;;;;5.57;3.10;;;14.40;88.00;;;;;;5092407;28;19904;-61
2022/04/02 11:08:12;;;;;;;4.55;3.28;;;14.40;88.80;;;;;;5092240;28;20028;-61
2022/04/02 11:10:38;;;;;;;7.13;3.45;;;14.50;89.60;;;;;;5071740;28;20031;-60
2022/04/02 11:13:06;;;;;;;5.20;3.00;;;14.50;89.10;;;;;;5064309;28;20024;-60
2022/04/02 11:15:41;;;;;;;4.97;3.35;;;14.50;89.30;;;;;;5078450;28;20035;-60
2022/04/02 11:18:18;;;;;;;5.30;3.78;;;14.50;89.10;;;;;;5092115;28;20035;-60
2022/04/02 11:20:44;;;;;;;6.85;4.00;;;14.50;89.10;;;;;;5090037;28;20427;-60
2022/04/02 11:23:15;;;;;;;7.53;4.00;;;14.50;89.50;;;;;;5072422;28;20016;-60
2022/04/02 11:25:51;;;;;;;5.45;3.40;;;14.50;89.60;;;;;;5081609;28;20035;-59
2022/04/02 11:28:19;;;;;;;6.00;4.05;;;14.60;89.60;;;;;;5085713;28;20036;-60
2022/04/02 11:30:47;;;;;;;5.43;4.05;;;14.50;89.80;;;;;;5095815;28;20028;-59
2022/04/02 11:33:15;;;;;;;6.95;4.03;;;14.50;89.80;;;;;;5092844;28;20439;-60
2022/04/02 11:35:47;;;;;;;5.43;3.92;;;14.60;89.80;;;;;;5090326;28;20426;-60
2022/04/02 11:38:20;;;;;;;5.32;3.92;;;14.60;90.00;;;;;;5082123;28;20031;-60
2022/04/02 11:41:02;;;;;;;8.50;5.95;;;14.60;89.80;;;;;;5096167;28;20411;-60
2022/04/02 11:43:39;;;;;;;6.35;5.00;;;14.60;89.20;;;;;;5088985;28;20032;-60
2022/04/02 11:46:07;;;;;;;4.05;3.65;;;14.50;88.40;;;;;;5075312;28;20078;-61
2022/04/02 11:48:48;;;;;;;3.92;3.53;;;14.40;87.90;;;;;;5072262;28;20077;-60
2022/04/02 11:51:19;;;;;;;4.28;3.88;;;14.30;87.70;;;;;;5085667;28;20032;-59
2022/04/02 11:53:45;;;;;;;4.43;3.70;;;14.20;87.50;;;;;;5088111;28;20029;-60
2022/04/02 11:56:34;;;;;;;4.53;4.13;;;14.10;87.40;;;;;;5092152;28;20039;-59
2022/04/02 11:59:05;;;;;;;3.90;3.35;;;14.00;87.70;;;;;;5089584;28;20021;-60
2022/04/02 12:01:51;;;;;;;4.10;3.80;;;14.00;87.40;;;;;;5066851;28;20028;-60
2022/04/02 12:04:19;;;;;;;5.68;4.28;;;13.90;86.80;;;;;;5092113;28;20387;-62
2022/04/02 12:06:49;;;;;;;4.95;4.20;;;13.80;87.10;;;;;;5095379;28;20057;-62
2022/04/02 12:09:14;;;;;;;5.20;3.78;;;13.70;87.20;;;;;;5093943;28;20028;-61
2022/04/02 12:12:06;;;;;;;3.10;2.80;;;13.70;86.70;;;;;;5095090;28;20460;-60
2022/04/02 12:14:40;;;;;;;2.65;2.45;;;13.60;85.60;;;;;;5075161;28;20033;-61
2022/04/02 12:17:14;;;;;;;2.60;2.40;;;13.50;85.20;;;;;;5070324;28;20040;-60
2022/04/02 12:19:44;;;;;;;3.35;2.85;;;13.30;84.50;;;;;;5076921;28;20464;-61
2022/04/02 12:22:17;;;;;;;2.90;2.50;;;13.30;84.70;;;;;;5093996;28;20534;-60
2022/04/02 12:24:48;;;;;;;2.90;2.60;;;13.10;84.50;;;;;;5090927;28;20024;-61
2022/04/02 12:27:20;;;;;;;2.47;2.25;;;13.00;84.70;;;;;;5095435;28;20055;-60
2022/04/02 12:29:48;;;;;;;2.85;2.50;;;13.00;84.40;;;;;;5095031;28;20034;-60
2022/04/02 12:32:37;;;;;;;2.60;2.40;;;12.90;84.40;;;;;;5093014;28;20472;-61
2022/04/02 12:35:04;;;;;;;2.58;2.38;;;12.80;84.40;;;;;;5064451;28;20099;-61
2022/04/02 12:37:40;;;;;;;2.58;2.30;;;12.80;83.80;;;;;;5084018;28;20168;-60
2022/04/02 12:40:22;;;;;;;2.65;2.45;;;12.80;83.30;;;;;;5094428;28;20675;-60
2022/04/02 12:42:50;;;;;;;2.72;2.50;;;12.70;83.10;;;;;;5084617;28;20025;-60
2022/04/02 12:45:21;;;;;;;3.55;2.20;;;12.60;83.10;;;;;;5065701;28;20024;-60
2022/04/02 12:48:14;;;;;;;3.25;2.70;;;12.60;83.50;;;;;;5087156;28;20107;-61
2022/04/02 12:50:52;;;;;;;3.30;3.00;;;12.50;83.30;;;;;;5094768;28;20028;-60
2022/04/02 12:53:40;;;;;;;3.22;2.90;;;12.50;83.50;;;;;;5089150;28;20024;-60
2022/04/02 12:56:25;;;;;;;2.88;2.67;;;12.50;83.80;;;;;;5092815;28;20379;-60